sensor_id;sensor_type;location;lat;lon;timestamp;P1;P2;P0
75960;PMS7003;64644;48.914;2.254;2023-02-01T00:01:54;6.50;6.50;5.00
75960;PMS7003;64644;48.914;2.254;2023-02-01T00:04:23;9.75;8.00;6.00
75960;PMS7003;64644;48.914;2.254;2023-02-01T00:06:48;8.00;8.00;6.00
75960;PMS7003;64644;48.914;2.254;2023-02-01T00:09:14;6.00;4.50;3.50
75960;PMS7003;64644;48.914;2.254;2023-02-01T00:11:39;10.75;10.00;8.25
75960;PMS7003;64644;48.914;2.254;2023-02-01T00:14:05;8.00;8.00;5.00
75960;PMS7003;64644;48.914;2.254;2023-02-01T00:16:31;6.00;6.00;5.75
75960;PMS7003;64644;48.914;2.254;2023-02-01T00:19:07;13.00;12.00;8.00
75960;PMS7003;64644;48.914;2.254;2023-02-01T00:21:39;10.25;8.50;6.00
75960;PMS7003;64644;48.914;2.254;2023-02-01T00:24:05;5.75;5.75;4.75
75960;PMS7003;64644;48.914;2.254;2023-02-01T00:26:35;12.25;8.25;6.50
75960;PMS7003;64644;48.914;2.254;2023-02-01T00:29:03;7.00;7.00;5.00
75960;PMS7003;64644;48.914;2.254;2023-02-01T00:31:31;10.00;8.50;6.00
75960;PMS7003;64644;48.914;2.254;2023-02-01T00:33:56;11.50;9.50;5.25
75960;PMS7003;64644;48.914;2.254;2023-02-01T00:36:22;9.75;9.75;6.00
75960;PMS7003;64644;48.914;2.254;2023-02-01T00:38:48;10.00;10.00;6.00
75960;PMS7003;64644;48.914;2.254;2023-02-01T00:41:15;1.50;1.50;1.00
75960;PMS7003;64644;48.914;2.254;2023-02-01T00:43:42;10.25;9.75;8.00
75960;PMS7003;64644;48.914;2.254;2023-02-01T00:46:08;9.00;7.50;5.00
75960;PMS7003;64644;48.914;2.254;2023-02-01T00:48:35;9.75;6.00;5.00
75960;PMS7003;64644;48.914;2.254;2023-02-01T00:51:01;7.75;6.50;5.50
75960;PMS7003;64644;48.914;2.254;2023-02-01T00:53:30;6.00;5.00;4.00
75960;PMS7003;64644;48.914;2.254;2023-02-01T00:55:55;9.25;7.75;5.00
75960;PMS7003;64644;48.914;2.254;2023-02-01T00:58:21;9.00;6.25;4.00
75960;PMS7003;64644;48.914;2.254;2023-02-01T01:00:49;9.75;8.00;5.00
75960;PMS7003;64644;48.914;2.254;2023-02-01T01:03:14;8.25;5.75;5.00
75960;PMS7003;64644;48.914;2.254;2023-02-01T01:05:44;7.00;7.00;4.00
75960;PMS7003;64644;48.914;2.254;2023-02-01T01:08:10;7.50;6.50;5.00
75960;PMS7003;64644;48.914;2.254;2023-02-01T01:10:35;5.25;5.25;4.00
75960;PMS7003;64644;48.914;2.254;2023-02-01T01:13:01;5.50;4.00;4.00
75960;PMS7003;64644;48.914;2.254;2023-02-01T01:15:27;9.75;6.00;4.50
75960;PMS7003;64644;48.914;2.254;2023-02-01T01:17:52;6.25;6.25;4.50
75960;PMS7003;64644;48.914;2.254;2023-02-01T01:20:17;10.75;6.00;5.00
75960;PMS7003;64644;48.914;2.254;2023-02-01T01:22:46;7.50;5.00;4.00
75960;PMS7003;64644;48.914;2.254;2023-02-01T01:25:12;8.25;5.00;5.00
75960;PMS7003;64644;48.914;2.254;2023-02-01T01:27:37;6.25;6.00;4.75
75960;PMS7003;64644;48.914;2.254;2023-02-01T01:30:03;8.75;5.00;4.00
75960;PMS7003;64644;48.914;2.254;2023-02-01T01:32:28;8.25;8.00;4.25
75960;PMS7003;64644;48.914;2.254;2023-02-01T01:34:54;6.75;5.25;4.00
75960;PMS7003;64644;48.914;2.254;2023-02-01T01:37:19;9.75;8.50;5.00
75960;PMS7003;64644;48.914;2.254;2023-02-01T01:39:45;12.25;8.25;5.25
75960;PMS7003;64644;48.914;2.254;2023-02-01T01:42:11;8.50;6.00;5.50
75960;PMS7003;64644;48.914;2.254;2023-02-01T01:47:26;6.00;6.00;4.50
75960;PMS7003;64644;48.914;2.254;2023-02-01T01:50:03;6.00;5.00;4.50
75960;PMS7003;64644;48.914;2.254;2023-02-01T01:52:32;5.50;5.50;4.75
75960;PMS7003;64644;48.914;2.254;2023-02-01T01:54:58;8.75;8.50;5.75
75960;PMS7003;64644;48.914;2.254;2023-02-01T01:57:25;5.50;5.00;4.00
75960;PMS7003;64644;48.914;2.254;2023-02-01T02:00:04;6.00;5.50;4.00
75960;PMS7003;64644;48.914;2.254;2023-02-01T02:02:32;5.00;4.25;2.00
75960;PMS7003;64644;48.914;2.254;2023-02-01T02:04:58;5.25;4.75;2.50
75960;PMS7003;64644;48.914;2.254;2023-02-01T02:07:25;4.00;3.50;2.00
75960;PMS7003;64644;48.914;2.254;2023-02-01T02:09:54;5.25;5.25;2.00
75960;PMS7003;64644;48.914;2.254;2023-02-01T02:12:20;4.00;1.25;0.50
75960;PMS7003;64644;48.914;2.254;2023-02-01T02:14:46;5.75;4.25;2.00
75960;PMS7003;64644;48.914;2.254;2023-02-01T02:17:18;5.00;4.50;3.00
75960;PMS7003;64644;48.914;2.254;2023-02-01T02:23:05;5.50;4.00;1.00
75960;PMS7003;64644;48.914;2.254;2023-02-01T02:34:28;4.25;2.00;2.00
75960;PMS7003;64644;48.914;2.254;2023-02-01T02:39:54;5.25;1.25;1.00
75960;PMS7003;64644;48.914;2.254;2023-02-01T02:50:45;3.50;3.50;2.00
75960;PMS7003;64644;48.914;2.254;2023-02-01T02:53:38;5.00;4.00;2.50
75960;PMS7003;64644;48.914;2.254;2023-02-01T02:56:32;1.00;1.00;0.00
75960;PMS7003;64644;48.914;2.254;2023-02-01T02:59:19;2.00;2.00;1.75
75960;PMS7003;64644;48.914;2.254;2023-02-01T03:02:06;3.50;3.50;2.00
75960;PMS7003;64644;48.914;2.254;2023-02-01T03:04:54;1.75;1.75;1.00
75960;PMS7003;64644;48.914;2.254;2023-02-01T03:10:35;5.75;4.50;2.00
75960;PMS7003;64644;48.914;2.254;2023-02-01T03:13:11;1.00;1.00;0.50
75960;PMS7003;64644;48.914;2.254;2023-02-01T03:15:45;6.50;6.50;2.50
75960;PMS7003;64644;48.914;2.254;2023-02-01T03:18:28;3.00;3.00;2.00
75960;PMS7003;64644;48.914;2.254;2023-02-01T03:24:06;6.00;2.00;1.00
75960;PMS7003;64644;48.914;2.254;2023-02-01T03:26:43;3.50;2.00;0.00
75960;PMS7003;64644;48.914;2.254;2023-02-01T03:29:18;2.00;2.00;1.25
75960;PMS7003;64644;48.914;2.254;2023-02-01T03:31:49;6.50;5.00;2.00
75960;PMS7003;64644;48.914;2.254;2023-02-01T03:34:15;4.50;4.50;2.00
75960;PMS7003;64644;48.914;2.254;2023-02-01T03:36:42;7.75;6.75;2.00
75960;PMS7003;64644;48.914;2.254;2023-02-01T03:41:55;3.00;2.00;1.00
75960;PMS7003;64644;48.914;2.254;2023-02-01T03:44:29;1.00;1.00;1.00
75960;PMS7003;64644;48.914;2.254;2023-02-01T03:47:02;6.00;4.00;2.00
75960;PMS7003;64644;48.914;2.254;2023-02-01T03:49:49;1.25;1.25;0.00
75960;PMS7003;64644;48.914;2.254;2023-02-01T03:52:22;5.00;4.25;3.00
75960;PMS7003;64644;48.914;2.254;2023-02-01T03:54:53;4.50;2.00;1.25
75960;PMS7003;64644;48.914;2.254;2023-02-01T03:57:22;4.25;2.00;1.50
75960;PMS7003;64644;48.914;2.254;2023-02-01T03:59:52;4.00;2.50;1.50
75960;PMS7003;64644;48.914;2.254;2023-02-01T04:02:17;4.25;1.25;1.25
75960;PMS7003;64644;48.914;2.254;2023-02-01T04:04:43;3.50;1.75;1.00
75960;PMS7003;64644;48.914;2.254;2023-02-01T04:07:09;1.75;1.75;0.75
75960;PMS7003;64644;48.914;2.254;2023-02-01T04:09:34;3.25;2.75;2.00
75960;PMS7003;64644;48.914;2.254;2023-02-01T04:12:00;5.00;2.75;1.50
75960;PMS7003;64644;48.914;2.254;2023-02-01T04:14:25;7.00;4.00;1.00
75960;PMS7003;64644;48.914;2.254;2023-02-01T04:16:51;5.75;3.50;1.50
75960;PMS7003;64644;48.914;2.254;2023-02-01T04:19:17;2.25;2.25;1.25
75960;PMS7003;64644;48.914;2.254;2023-02-01T04:21:42;5.50;5.25;1.50
75960;PMS7003;64644;48.914;2.254;2023-02-01T04:24:07;3.50;3.25;1.25
75960;PMS7003;64644;48.914;2.254;2023-02-01T04:26:33;3.25;3.25;1.25
75960;PMS7003;64644;48.914;2.254;2023-02-01T04:28:59;5.50;5.50;1.75
75960;PMS7003;64644;48.914;2.254;2023-02-01T04:31:24;3.00;2.00;1.00
75960;PMS7003;64644;48.914;2.254;2023-02-01T04:33:53;8.75;5.00;2.00
75960;PMS7003;64644;48.914;2.254;2023-02-01T04:36:20;5.50;4.00;2.00
75960;PMS7003;64644;48.914;2.254;2023-02-01T04:38:47;1.75;1.75;0.00
75960;PMS7003;64644;48.914;2.254;2023-02-01T04:41:13;6.25;2.00;1.00
75960;PMS7003;64644;48.914;2.254;2023-02-01T04:43:39;2.00;2.00;1.00
75960;PMS7003;64644;48.914;2.254;2023-02-01T04:46:04;4.50;4.00;2.00
75960;PMS7003;64644;48.914;2.254;2023-02-01T04:48:29;5.25;4.75;2.00
75960;PMS7003;64644;48.914;2.254;2023-02-01T04:50:55;4.00;1.00;1.00
75960;PMS7003;64644;48.914;2.254;2023-02-01T04:53:20;1.00;1.00;1.00
75960;PMS7003;64644;48.914;2.254;2023-02-01T04:55:47;5.00;3.00;1.00
75960;PMS7003;64644;48.914;2.254;2023-02-01T04:58:13;7.25;5.50;1.75
75960;PMS7003;64644;48.914;2.254;2023-02-01T05:00:39;5.25;3.75;1.75
75960;PMS7003;64644;48.914;2.254;2023-02-01T05:03:04;2.50;2.50;1.25
75960;PMS7003;64644;48.914;2.254;2023-02-01T05:05:30;2.50;2.00;1.25
75960;PMS7003;64644;48.914;2.254;2023-02-01T05:07:55;8.25;4.75;1.25
75960;PMS7003;64644;48.914;2.254;2023-02-01T05:10:21;4.75;4.75;1.50
75960;PMS7003;64644;48.914;2.254;2023-02-01T05:12:47;7.50;5.00;2.00
75960;PMS7003;64644;48.914;2.254;2023-02-01T05:15:31;2.50;2.50;2.00
75960;PMS7003;64644;48.914;2.254;2023-02-01T05:17:57;5.25;4.75;3.50
75960;PMS7003;64644;48.914;2.254;2023-02-01T05:20:23;1.75;1.25;1.00
75960;PMS7003;64644;48.914;2.254;2023-02-01T05:22:49;5.75;4.25;2.00
75960;PMS7003;64644;48.914;2.254;2023-02-01T05:25:14;1.75;1.75;1.00
75960;PMS7003;64644;48.914;2.254;2023-02-01T05:27:40;4.25;4.00;1.50
75960;PMS7003;64644;48.914;2.254;2023-02-01T05:30:07;5.50;5.25;2.00
75960;PMS7003;64644;48.914;2.254;2023-02-01T05:32:33;3.75;3.75;1.00
75960;PMS7003;64644;48.914;2.254;2023-02-01T05:34:59;5.00;2.50;1.75
75960;PMS7003;64644;48.914;2.254;2023-02-01T05:37:24;4.75;4.75;2.00
75960;PMS7003;64644;48.914;2.254;2023-02-01T05:39:49;2.50;2.00;1.00
75960;PMS7003;64644;48.914;2.254;2023-02-01T05:42:15;4.25;4.25;2.00
75960;PMS7003;64644;48.914;2.254;2023-02-01T05:44:40;2.00;1.75;1.00
75960;PMS7003;64644;48.914;2.254;2023-02-01T05:47:06;4.50;3.00;1.25
75960;PMS7003;64644;48.914;2.254;2023-02-01T05:49:31;4.50;4.00;2.00
75960;PMS7003;64644;48.914;2.254;2023-02-01T05:51:57;3.00;3.00;2.00
75960;PMS7003;64644;48.914;2.254;2023-02-01T05:54:22;2.00;2.00;1.00
75960;PMS7003;64644;48.914;2.254;2023-02-01T05:56:47;4.00;4.00;1.00
75960;PMS7003;64644;48.914;2.254;2023-02-01T05:59:13;4.00;3.50;1.50
75960;PMS7003;64644;48.914;2.254;2023-02-01T06:01:38;4.50;1.00;1.00
75960;PMS7003;64644;48.914;2.254;2023-02-01T06:04:04;3.50;1.00;1.00
75960;PMS7003;64644;48.914;2.254;2023-02-01T06:06:29;3.50;1.75;1.00
75960;PMS7003;64644;48.914;2.254;2023-02-01T06:08:54;3.50;1.50;0.50
75960;PMS7003;64644;48.914;2.254;2023-02-01T06:11:20;3.00;2.00;1.00
75960;PMS7003;64644;48.914;2.254;2023-02-01T06:13:45;4.00;1.25;1.00
75960;PMS7003;64644;48.914;2.254;2023-02-01T06:16:10;2.50;2.00;2.00
75960;PMS7003;64644;48.914;2.254;2023-02-01T06:18:36;2.50;2.50;1.50
75960;PMS7003;64644;48.914;2.254;2023-02-01T06:21:02;3.50;3.00;1.25
75960;PMS7003;64644;48.914;2.254;2023-02-01T06:23:29;1.75;1.50;1.00
75960;PMS7003;64644;48.914;2.254;2023-02-01T06:26:00;5.25;2.50;1.00
75960;PMS7003;64644;48.914;2.254;2023-02-01T06:28:27;9.00;2.00;2.00
75960;PMS7003;64644;48.914;2.254;2023-02-01T06:30:53;5.00;1.00;1.00
75960;PMS7003;64644;48.914;2.254;2023-02-01T06:33:19;5.50;2.00;1.00
75960;PMS7003;64644;48.914;2.254;2023-02-01T06:35:44;4.25;2.50;1.00
75960;PMS7003;64644;48.914;2.254;2023-02-01T06:38:10;6.25;4.00;2.00
75960;PMS7003;64644;48.914;2.254;2023-02-01T06:40:36;4.25;4.25;1.25
75960;PMS7003;64644;48.914;2.254;2023-02-01T06:43:02;4.00;2.00;1.50
75960;PMS7003;64644;48.914;2.254;2023-02-01T06:45:28;9.00;4.75;2.00
75960;PMS7003;64644;48.914;2.254;2023-02-01T06:47:53;5.75;4.75;2.00
75960;PMS7003;64644;48.914;2.254;2023-02-01T06:50:18;1.00;1.00;1.00
75960;PMS7003;64644;48.914;2.254;2023-02-01T06:52:44;4.00;2.00;2.00
75960;PMS7003;64644;48.914;2.254;2023-02-01T06:55:09;9.75;6.00;2.00
75960;PMS7003;64644;48.914;2.254;2023-02-01T06:57:34;6.00;4.00;2.00
75960;PMS7003;64644;48.914;2.254;2023-02-01T07:00:01;2.00;2.00;2.00
75960;PMS7003;64644;48.914;2.254;2023-02-01T07:02:28;8.50;6.00;4.00
75960;PMS7003;64644;48.914;2.254;2023-02-01T07:04:53;6.00;6.00;2.00
75960;PMS7003;64644;48.914;2.254;2023-02-01T07:07:19;1.00;1.00;1.00
75960;PMS7003;64644;48.914;2.254;2023-02-01T07:09:45;3.00;2.25;1.25
75960;PMS7003;64644;48.914;2.254;2023-02-01T07:12:20;3.00;3.00;1.75
75960;PMS7003;64644;48.914;2.254;2023-02-01T07:14:47;4.75;4.00;2.00
75960;PMS7003;64644;48.914;2.254;2023-02-01T07:17:13;8.00;5.50;2.00
75960;PMS7003;64644;48.914;2.254;2023-02-01T07:19:38;1.00;1.00;0.75
75960;PMS7003;64644;48.914;2.254;2023-02-01T07:22:03;8.25;6.00;3.00
75960;PMS7003;64644;48.914;2.254;2023-02-01T07:24:33;7.50;7.00;4.00
75960;PMS7003;64644;48.914;2.254;2023-02-01T07:26:59;8.50;4.75;2.00
75960;PMS7003;64644;48.914;2.254;2023-02-01T07:29:24;5.00;4.50;1.75
75960;PMS7003;64644;48.914;2.254;2023-02-01T07:31:49;4.25;4.00;2.00
75960;PMS7003;64644;48.914;2.254;2023-02-01T07:34:15;6.00;4.75;2.00
75960;PMS7003;64644;48.914;2.254;2023-02-01T07:36:40;5.25;4.50;2.00
75960;PMS7003;64644;48.914;2.254;2023-02-01T07:39:06;5.00;5.00;1.00
75960;PMS7003;64644;48.914;2.254;2023-02-01T07:41:32;4.25;1.00;1.00
75960;PMS7003;64644;48.914;2.254;2023-02-01T07:43:57;5.25;5.25;2.00
75960;PMS7003;64644;48.914;2.254;2023-02-01T07:46:23;1.25;1.00;1.00
75960;PMS7003;64644;48.914;2.254;2023-02-01T07:48:48;7.75;4.75;2.00
75960;PMS7003;64644;48.914;2.254;2023-02-01T07:51:14;1.50;1.50;1.25
75960;PMS7003;64644;48.914;2.254;2023-02-01T07:53:41;3.75;1.25;0.00
75960;PMS7003;64644;48.914;2.254;2023-02-01T07:56:14;5.50;5.50;3.50
75960;PMS7003;64644;48.914;2.254;2023-02-01T07:58:42;5.00;3.00;1.00
75960;PMS7003;64644;48.914;2.254;2023-02-01T08:01:17;6.00;4.75;1.25
75960;PMS7003;64644;48.914;2.254;2023-02-01T08:03:50;4.25;4.25;2.00
75960;PMS7003;64644;48.914;2.254;2023-02-01T08:06:16;5.50;3.00;1.50
75960;PMS7003;64644;48.914;2.254;2023-02-01T08:08:41;2.50;2.50;2.00
75960;PMS7003;64644;48.914;2.254;2023-02-01T08:11:09;5.00;3.00;1.25
75960;PMS7003;64644;48.914;2.254;2023-02-01T08:13:35;5.00;5.00;2.00
75960;PMS7003;64644;48.914;2.254;2023-02-01T08:16:01;5.75;4.50;2.00
75960;PMS7003;64644;48.914;2.254;2023-02-01T08:18:27;9.75;7.50;4.50
75960;PMS7003;64644;48.914;2.254;2023-02-01T08:20:53;5.00;5.00;4.00
75960;PMS7003;64644;48.914;2.254;2023-02-01T08:23:19;5.75;5.75;3.50
75960;PMS7003;64644;48.914;2.254;2023-02-01T08:25:45;8.75;6.00;4.00
75960;PMS7003;64644;48.914;2.254;2023-02-01T08:28:11;4.00;4.00;2.00
75960;PMS7003;64644;48.914;2.254;2023-02-01T08:30:39;4.50;4.50;2.00
75960;PMS7003;64644;48.914;2.254;2023-02-01T08:33:07;4.25;4.25;2.00
75960;PMS7003;64644;48.914;2.254;2023-02-01T08:35:37;10.75;7.50;2.00
75960;PMS7003;64644;48.914;2.254;2023-02-01T08:38:03;4.00;3.50;1.75
75960;PMS7003;64644;48.914;2.254;2023-02-01T08:40:29;5.25;4.00;3.50
75960;PMS7003;64644;48.914;2.254;2023-02-01T08:42:54;3.00;2.50;1.25
75960;PMS7003;64644;48.914;2.254;2023-02-01T08:45:21;1.00;1.00;0.25
75960;PMS7003;64644;48.914;2.254;2023-02-01T08:47:50;6.00;5.00;3.00
75960;PMS7003;64644;48.914;2.254;2023-02-01T08:50:16;5.00;4.00;2.00
75960;PMS7003;64644;48.914;2.254;2023-02-01T08:52:42;3.50;1.50;1.00
75960;PMS7003;64644;48.914;2.254;2023-02-01T08:55:08;12.75;6.50;2.00
75960;PMS7003;64644;48.914;2.254;2023-02-01T08:57:33;4.50;4.00;2.00
75960;PMS7003;64644;48.914;2.254;2023-02-01T08:59:59;10.25;8.50;4.00
75960;PMS7003;64644;48.914;2.254;2023-02-01T09:02:25;8.50;5.50;4.00
75960;PMS7003;64644;48.914;2.254;2023-02-01T09:04:51;3.50;3.50;1.00
75960;PMS7003;64644;48.914;2.254;2023-02-01T09:07:17;4.00;4.00;2.00
75960;PMS7003;64644;48.914;2.254;2023-02-01T09:09:43;2.00;2.00;1.25
75960;PMS7003;64644;48.914;2.254;2023-02-01T09:12:09;2.75;2.00;1.00
75960;PMS7003;64644;48.914;2.254;2023-02-01T09:14:34;5.00;3.00;2.00
75960;PMS7003;64644;48.914;2.254;2023-02-01T09:17:00;8.75;5.00;2.00
75960;PMS7003;64644;48.914;2.254;2023-02-01T09:19:25;6.25;6.25;4.00
75960;PMS7003;64644;48.914;2.254;2023-02-01T09:21:51;8.75;6.00;4.00
75960;PMS7003;64644;48.914;2.254;2023-02-01T09:24:16;5.25;5.00;3.50
75960;PMS7003;64644;48.914;2.254;2023-02-01T09:26:41;6.00;4.75;2.00
75960;PMS7003;64644;48.914;2.254;2023-02-01T09:29:07;10.00;5.75;2.00
75960;PMS7003;64644;48.914;2.254;2023-02-01T09:31:35;5.50;5.50;2.50
75960;PMS7003;64644;48.914;2.254;2023-02-01T09:34:01;9.50;8.00;4.00
75960;PMS7003;64644;48.914;2.254;2023-02-01T09:36:27;7.00;4.50;4.00
75960;PMS7003;64644;48.914;2.254;2023-02-01T09:38:52;5.75;4.50;2.00
75960;PMS7003;64644;48.914;2.254;2023-02-01T09:46:57;5.75;5.25;2.00
75960;PMS7003;64644;48.914;2.254;2023-02-01T09:49:29;5.75;5.50;4.00
75960;PMS7003;64644;48.914;2.254;2023-02-01T09:51:57;5.00;5.00;2.00
75960;PMS7003;64644;48.914;2.254;2023-02-01T09:54:25;3.75;3.75;1.50
75960;PMS7003;64644;48.914;2.254;2023-02-01T09:56:56;2.00;2.00;1.00
75960;PMS7003;64644;48.914;2.254;2023-02-01T10:02:14;9.00;4.25;2.00
75960;PMS7003;64644;48.914;2.254;2023-02-01T10:04:44;11.75;8.25;4.75
75960;PMS7003;64644;48.914;2.254;2023-02-01T10:09:44;8.00;4.50;2.00
75960;PMS7003;64644;48.914;2.254;2023-02-01T10:20:36;6.50;4.00;1.75
75960;PMS7003;64644;48.914;2.254;2023-02-01T10:28:41;13.25;6.00;3.50
75960;PMS7003;64644;48.914;2.254;2023-02-01T10:31:09;2.25;1.00;0.75
75960;PMS7003;64644;48.914;2.254;2023-02-01T10:33:36;2.00;1.00;0.75
75960;PMS7003;64644;48.914;2.254;2023-02-01T10:36:17;4.00;4.00;1.00
75960;PMS7003;64644;48.914;2.254;2023-02-01T10:38:46;4.50;4.00;2.00
75960;PMS7003;64644;48.914;2.254;2023-02-01T10:43:38;5.00;3.67;2.33
75960;PMS7003;64644;48.914;2.254;2023-02-01T10:46:04;4.25;2.00;0.50
75960;PMS7003;64644;48.914;2.254;2023-02-01T10:48:30;10.75;4.00;2.00
75960;PMS7003;64644;48.914;2.254;2023-02-01T10:51:05;2.75;1.00;0.00
75960;PMS7003;64644;48.914;2.254;2023-02-01T10:53:42;6.75;3.25;2.00
75960;PMS7003;64644;48.914;2.254;2023-02-01T10:56:13;4.75;4.00;3.50
75960;PMS7003;64644;48.914;2.254;2023-02-01T10:58:47;10.50;4.50;2.00
75960;PMS7003;64644;48.914;2.254;2023-02-01T11:01:28;7.50;7.00;4.25
75960;PMS7003;64644;48.914;2.254;2023-02-01T11:04:10;4.00;3.00;2.00
75960;PMS7003;64644;48.914;2.254;2023-02-01T11:06:39;5.00;5.00;2.00
75960;PMS7003;64644;48.914;2.254;2023-02-01T11:11:31;1.67;1.67;1.00
75960;PMS7003;64644;48.914;2.254;2023-02-01T11:13:58;6.00;5.00;2.00
75960;PMS7003;64644;48.914;2.254;2023-02-01T11:16:29;7.50;6.00;4.25
75960;PMS7003;64644;48.914;2.254;2023-02-01T11:18:57;9.25;5.50;2.00
75960;PMS7003;64644;48.914;2.254;2023-02-01T11:21:23;7.25;5.50;2.00
75960;PMS7003;64644;48.914;2.254;2023-02-01T11:23:49;5.00;4.00;2.00
75960;PMS7003;64644;48.914;2.254;2023-02-01T11:26:19;7.25;5.25;2.25
75960;PMS7003;64644;48.914;2.254;2023-02-01T11:28:57;7.50;5.00;3.00
75960;PMS7003;64644;48.914;2.254;2023-02-01T11:31:26;5.00;5.00;4.00
75960;PMS7003;64644;48.914;2.254;2023-02-01T11:33:53;5.50;5.25;3.25
75960;PMS7003;64644;48.914;2.254;2023-02-01T11:36:24;5.50;5.50;2.50
75960;PMS7003;64644;48.914;2.254;2023-02-01T11:41:43;5.25;3.50;2.00
75960;PMS7003;64644;48.914;2.254;2023-02-01T11:44:40;5.00;5.00;2.75
75960;PMS7003;64644;48.914;2.254;2023-02-01T11:49:59;9.00;5.00;2.00
75960;PMS7003;64644;48.914;2.254;2023-02-01T11:55:17;3.50;3.00;2.00
75960;PMS7003;64644;48.914;2.254;2023-02-01T12:05:31;6.00;5.00;2.75
75960;PMS7003;64644;48.914;2.254;2023-02-01T12:08:26;7.50;4.50;3.50
75960;PMS7003;64644;48.914;2.254;2023-02-01T12:13:53;6.25;5.25;2.25
75960;PMS7003;64644;48.914;2.254;2023-02-01T12:20:04;3.00;1.50;1.00
75960;PMS7003;64644;48.914;2.254;2023-02-01T12:28:50;5.00;4.50;2.75
75960;PMS7003;64644;48.914;2.254;2023-02-01T12:31:43;3.00;3.00;2.00
75960;PMS7003;64644;48.914;2.254;2023-02-01T12:37:07;6.75;5.00;2.50
75960;PMS7003;64644;48.914;2.254;2023-02-01T12:42:56;7.75;6.25;2.50
75960;PMS7003;64644;48.914;2.254;2023-02-01T12:45:45;5.75;4.50;2.50
75960;PMS7003;64644;48.914;2.254;2023-02-01T12:48:27;5.00;5.00;2.25
75960;PMS7003;64644;48.914;2.254;2023-02-01T12:51:12;7.00;6.00;2.00
75960;PMS7003;64644;48.914;2.254;2023-02-01T12:53:44;5.50;3.50;2.00
75960;PMS7003;64644;48.914;2.254;2023-02-01T12:56:15;5.50;3.00;2.00
75960;PMS7003;64644;48.914;2.254;2023-02-01T12:59:08;0.50;0.25;0.00
75960;PMS7003;64644;48.914;2.254;2023-02-01T13:01:46;7.00;4.50;3.00
75960;PMS7003;64644;48.914;2.254;2023-02-01T13:04:20;1.75;1.75;1.00
75960;PMS7003;64644;48.914;2.254;2023-02-01T13:07:14;2.00;2.00;1.75
75960;PMS7003;64644;48.914;2.254;2023-02-01T13:09:52;0.75;0.75;0.00
75960;PMS7003;64644;48.914;2.254;2023-02-01T13:12:24;3.50;3.00;2.00
75960;PMS7003;64644;48.914;2.254;2023-02-01T13:15:01;5.50;3.00;2.00
75960;PMS7003;64644;48.914;2.254;2023-02-01T13:17:35;6.75;2.75;1.00
75960;PMS7003;64644;48.914;2.254;2023-02-01T13:21:02;3.75;2.00;2.00
75960;PMS7003;64644;48.914;2.254;2023-02-01T13:23:08;2.75;2.75;1.50
75960;PMS7003;64644;48.914;2.254;2023-02-01T13:25:45;2.25;2.00;1.75
75960;PMS7003;64644;48.914;2.254;2023-02-01T13:28:16;5.50;2.50;1.25
75960;PMS7003;64644;48.914;2.254;2023-02-01T13:33:40;6.25;6.00;2.00
75960;PMS7003;64644;48.914;2.254;2023-02-01T13:36:19;3.00;3.00;1.50
75960;PMS7003;64644;48.914;2.254;2023-02-01T13:41:43;7.00;3.50;2.00
75960;PMS7003;64644;48.914;2.254;2023-02-01T13:44:19;1.75;1.25;0.50
75960;PMS7003;64644;48.914;2.254;2023-02-01T13:46:56;1.75;1.75;1.00
75960;PMS7003;64644;48.914;2.254;2023-02-01T13:49:25;3.00;1.25;1.00
75960;PMS7003;64644;48.914;2.254;2023-02-01T13:51:53;3.50;3.00;2.00
75960;PMS7003;64644;48.914;2.254;2023-02-01T13:54:25;2.00;1.75;1.00
75960;PMS7003;64644;48.914;2.254;2023-02-01T13:57:29;1.00;1.00;0.50
75960;PMS7003;64644;48.914;2.254;2023-02-01T14:03:21;9.00;3.00;2.00
75960;PMS7003;64644;48.914;2.254;2023-02-01T14:06:14;8.00;5.50;2.00
75960;PMS7003;64644;48.914;2.254;2023-02-01T14:11:36;5.00;2.75;1.00
75960;PMS7003;64644;48.914;2.254;2023-02-01T14:16:38;7.00;4.00;2.00
75960;PMS7003;64644;48.914;2.254;2023-02-01T14:19:06;3.75;3.00;2.00
75960;PMS7003;64644;48.914;2.254;2023-02-01T14:21:34;5.00;5.00;2.75
75960;PMS7003;64644;48.914;2.254;2023-02-01T14:24:16;5.00;2.50;2.00
75960;PMS7003;64644;48.914;2.254;2023-02-01T14:26:52;6.00;3.50;2.00
75960;PMS7003;64644;48.914;2.254;2023-02-01T14:29:35;6.75;4.50;3.00
75960;PMS7003;64644;48.914;2.254;2023-02-01T14:32:06;5.00;2.00;2.00
75960;PMS7003;64644;48.914;2.254;2023-02-01T14:47:50;2.75;2.25;1.00
75960;PMS7003;64644;48.914;2.254;2023-02-01T14:55:46;4.00;3.50;2.00
75960;PMS7003;64644;48.914;2.254;2023-02-01T15:01:20;6.00;2.75;1.00
75960;PMS7003;64644;48.914;2.254;2023-02-01T15:06:38;5.00;3.00;1.50
75960;PMS7003;64644;48.914;2.254;2023-02-01T15:09:09;6.00;2.00;1.25
75960;PMS7003;64644;48.914;2.254;2023-02-01T15:14:30;8.50;6.25;3.00
75960;PMS7003;64644;48.914;2.254;2023-02-01T15:17:26;4.00;4.00;2.00
75960;PMS7003;64644;48.914;2.254;2023-02-01T15:19:59;5.00;2.25;1.25
75960;PMS7003;64644;48.914;2.254;2023-02-01T15:22:27;4.75;2.25;2.00
75960;PMS7003;64644;48.914;2.254;2023-02-01T15:24:56;5.00;5.00;3.50
75960;PMS7003;64644;48.914;2.254;2023-02-01T15:27:23;5.25;5.25;2.50
75960;PMS7003;64644;48.914;2.254;2023-02-01T15:29:49;3.00;3.00;2.00
75960;PMS7003;64644;48.914;2.254;2023-02-01T15:32:31;3.00;3.00;2.00
75960;PMS7003;64644;48.914;2.254;2023-02-01T15:35:00;4.50;3.00;2.00
75960;PMS7003;64644;48.914;2.254;2023-02-01T15:37:30;9.00;4.50;3.00
75960;PMS7003;64644;48.914;2.254;2023-02-01T15:40:18;5.00;5.00;2.00
75960;PMS7003;64644;48.914;2.254;2023-02-01T15:42:54;4.25;3.00;1.00
75960;PMS7003;64644;48.914;2.254;2023-02-01T15:45:22;13.25;5.25;2.25
75960;PMS7003;64644;48.914;2.254;2023-02-01T15:47:54;4.00;4.00;2.25
75960;PMS7003;64644;48.914;2.254;2023-02-01T15:50:22;6.25;6.00;2.00
75960;PMS7003;64644;48.914;2.254;2023-02-01T15:52:49;3.00;2.00;1.25
75960;PMS7003;64644;48.914;2.254;2023-02-01T15:55:50;6.25;5.25;2.00
75960;PMS7003;64644;48.914;2.254;2023-02-01T15:58:19;4.00;2.00;1.25
75960;PMS7003;64644;48.914;2.254;2023-02-01T16:01:00;3.00;2.00;1.00
75960;PMS7003;64644;48.914;2.254;2023-02-01T16:05:59;5.75;2.00;1.00
75960;PMS7003;64644;48.914;2.254;2023-02-01T16:08:27;1.00;1.00;1.00
75960;PMS7003;64644;48.914;2.254;2023-02-01T16:10:58;4.00;3.25;1.50
75960;PMS7003;64644;48.914;2.254;2023-02-01T16:13:26;6.00;3.50;2.00
75960;PMS7003;64644;48.914;2.254;2023-02-01T16:15:52;3.00;2.75;1.75
75960;PMS7003;64644;48.914;2.254;2023-02-01T16:18:18;2.50;2.50;2.00
75960;PMS7003;64644;48.914;2.254;2023-02-01T16:20:43;5.50;4.25;2.50
75960;PMS7003;64644;48.914;2.254;2023-02-01T16:23:09;4.25;3.00;2.25
75960;PMS7003;64644;48.914;2.254;2023-02-01T16:25:35;2.50;2.25;1.00
75960;PMS7003;64644;48.914;2.254;2023-02-01T16:28:02;5.75;3.00;1.00
75960;PMS7003;64644;48.914;2.254;2023-02-01T16:30:27;5.75;3.00;2.00
75960;PMS7003;64644;48.914;2.254;2023-02-01T16:32:53;3.50;3.50;1.75
75960;PMS7003;64644;48.914;2.254;2023-02-01T16:35:22;2.00;2.00;1.00
75960;PMS7003;64644;48.914;2.254;2023-02-01T16:38:04;1.00;1.00;1.00
75960;PMS7003;64644;48.914;2.254;2023-02-01T16:40:37;6.00;2.00;1.50
75960;PMS7003;64644;48.914;2.254;2023-02-01T16:43:05;5.50;5.50;1.25
75960;PMS7003;64644;48.914;2.254;2023-02-01T16:45:37;6.75;3.00;2.00
75960;PMS7003;64644;48.914;2.254;2023-02-01T16:48:05;4.25;1.50;1.00
75960;PMS7003;64644;48.914;2.254;2023-02-01T16:50:31;6.00;5.75;1.00
75960;PMS7003;64644;48.914;2.254;2023-02-01T16:52:57;5.25;2.25;1.00
75960;PMS7003;64644;48.914;2.254;2023-02-01T16:55:23;6.50;6.00;3.00
75960;PMS7003;64644;48.914;2.254;2023-02-01T16:57:48;4.50;4.50;2.25
75960;PMS7003;64644;48.914;2.254;2023-02-01T17:00:14;5.00;5.00;2.00